Lennoxville, Quebec

4:25 AM EDT on July 13, 2014 (GMT -0400)
Sherbrooke (CYSC) Elev 791 ft | 45.44 °N, 71.69 °W | Change Station

Current weather conditions updated 25 minutes ago

Scattered Clouds
Scattered Clouds
61 °F
Feels Like 61 °F
N
4
Wind Variable Wind from East

Today is forecast to be nearly the same temperature as yesterday. Afternoon thunderstorms.

Today
High -- | Low -- °F
--% Chance of Precip.
Yesterday
High -- | Low -- °F
Precip. -- in
5:11 AM 8:33 PM
Full, 99% visible
Pressure 29.99 in
Visibility 8.0 miles
Clouds Scattered Clouds 7000 ft
Dew Point 59 °F
Humidity 94%
Rainfall 0.00 in
Snow Depth Not available.
UV 0 out of 12
Pollen Not available.
Air Quality Not available.
Flu Activity Not available.
METAR CYSC 130800Z AUTO 09003KT 8SM SCT070 16/15 A2999 RMK SLP154 DENSITY ALT 1000FT

More Conditions Fewer Conditions

Pressure 29.99 in
Visibility 8.0 miles
Clouds Scattered Clouds 7000 ft
Dew Point 59 °F
Humidity 94%
Rainfall 0.00 in
Snow Depth Not available.
UV 0 out of 12
Pollen Not available.
Air Quality Not available.
Flu Activity Not available.
METAR CYSC 130800Z AUTO 09003KT 8SM SCT070 16/15 A2999 RMK SLP154 DENSITY ALT 1000FT

More Conditions Fewer Conditions

10-Day Weather Forecast

Almanac

Astronomy

Jul. 13, 2014 Rise Set
Actual Time 5:11 AM EDT 8:33 PM EDT
Civil Twilight 4:35 AM EDT 9:10 PM EDT
Nautical Twilight 3:47 AM EDT 9:57 PM EDT
Astronomical Twilight 2:46 AM EDT 10:58 PM EDT
Moon 9:11 PM EDT 6:45 AM EDT
Length of Visible Light 16h 35m
Length of Day
15h 22m
Tomorrow will be 1m 34s shorter.
Full, 99% of the Moon is Illuminated
Today
Full
Jul 18
Last Quarter
Jul 26
New
Aug 3
First Quarter
Aug 10
Full

Yesterday's Extremes

Country Highs Country Lows

Community

WunderPhotos

Upload Photos

1,733,143 photos uploaded!

Nearby

Snow Depth

Not available.

Earthquake Activity

City Distance Mag. Time & Date
No recent earthquake activity has been reported nearby.
Minimum magnitude displayed is 2.5.

Coastal Water Temperatures

Place Temperature
No Stations Reporting

Nearby Weather Stations

Station Location Temp. Dew Point Humidity Wind Precip. Elev Updated Type
Lac Bowker, Orford 63.2 °F 61 °F 93% ESE  at  0.0 mph 0.00 in / hr 1033 ft 4:25 AM EDT Rapid Fire
Orford Lake, Eastman 66.2 °F 61 °F 83% South  at  0.0 mph - / hr -107507 ft 4:11 AM EDT Normal

Show More Stations Show Fewer Stations